createdAt,value
2018-03-02T00:00:00.168Z,88.20
2018-03-02T00:02:27.711Z,87.30
2018-03-02T00:04:55.296Z,88.20
2018-03-02T00:07:22.847Z,87.90
2018-03-02T00:09:50.428Z,88.80
2018-03-02T00:12:17.980Z,87.40
2018-03-02T00:14:45.520Z,88.40
2018-03-02T00:17:13.080Z,88.60
2018-03-02T00:19:40.622Z,87.70
2018-03-02T00:22:08.185Z,87.30
2018-03-02T00:24:35.746Z,87.00
2018-03-02T00:27:03.327Z,88.10
2018-03-02T00:29:30.894Z,89.20
2018-03-02T00:31:58.461Z,88.50
2018-03-02T00:34:26.000Z,88.20
2018-03-02T00:36:53.564Z,88.30
2018-03-02T00:39:21.102Z,89.00
2018-03-02T00:41:48.667Z,90.00
2018-03-02T00:44:16.207Z,90.50
2018-03-02T00:46:44.534Z,89.20
2018-03-02T00:49:12.076Z,89.10
2018-03-02T00:51:39.637Z,89.50
2018-03-02T00:54:07.178Z,89.50
2018-03-02T00:56:34.738Z,89.90
2018-03-02T00:59:02.283Z,88.40
2018-03-02T01:01:30.617Z,89.70
2018-03-02T01:03:58.147Z,89.70
2018-03-02T01:06:25.718Z,89.80
2018-03-02T01:08:53.258Z,90.30
2018-03-02T01:11:20.818Z,88.80
2018-03-02T01:13:48.358Z,89.40
2018-03-02T01:16:16.685Z,91.70
2018-03-02T01:18:44.228Z,91.70
2018-03-02T01:21:11.788Z,91.00
2018-03-02T01:23:39.328Z,90.90
2018-03-02T01:26:06.895Z,90.60
2018-03-02T01:28:34.430Z,90.50
2018-03-02T01:31:02.753Z,91.30
2018-03-02T01:33:30.290Z,91.20
2018-03-02T01:35:57.850Z,91.40
2018-03-02T01:38:25.395Z,90.90
2018-03-02T01:40:53.723Z,91.30
2018-03-02T01:43:21.260Z,91.30
2018-03-02T01:45:48.824Z,91.60
2018-03-02T01:48:16.366Z,92.20
2018-03-02T01:50:43.939Z,92.20
2018-03-02T01:53:11.519Z,91.90
2018-03-02T01:55:39.085Z,92.80
2018-03-02T01:58:06.631Z,92.60
2018-03-02T02:00:34.202Z,92.30
2018-03-02T02:03:01.745Z,93.10
2018-03-02T02:05:29.308Z,93.20
2018-03-02T02:07:56.850Z,93.30
2018-03-02T02:10:24.456Z,93.90
2018-03-02T02:12:51.983Z,93.50
2018-03-02T02:15:19.530Z,94.40
2018-03-02T02:17:47.100Z,94.00
2018-03-02T02:20:14.642Z,93.80
2018-03-02T02:22:42.211Z,94.30
2018-03-02T02:25:09.746Z,95.70
2018-03-02T02:27:37.319Z,94.40
2018-03-02T02:30:04.869Z,94.20
2018-03-02T02:32:32.446Z,94.00
2018-03-02T02:34:59.983Z,95.70
2018-03-02T02:37:27.563Z,95.70
2018-03-02T02:39:55.103Z,94.90
2018-03-02T02:42:23.439Z,94.50
2018-03-02T02:44:50.974Z,94.50
2018-03-02T02:47:18.540Z,94.20
2018-03-02T02:49:46.086Z,94.80
2018-03-02T02:52:13.664Z,93.90
2018-03-02T02:54:41.209Z,95.00
2018-03-02T02:57:08.770Z,95.10
2018-03-02T02:59:36.307Z,95.20
2018-03-02T03:02:03.870Z,96.30
2018-03-02T03:04:31.459Z,96.50
2018-03-02T03:06:59.018Z,96.00
2018-03-02T03:09:26.569Z,96.70
2018-03-02T03:11:54.131Z,96.40
2018-03-02T03:14:21.673Z,96.60
2018-03-02T03:16:49.234Z,97.60
2018-03-02T03:19:16.773Z,97.30
2018-03-02T03:21:45.106Z,97.00
2018-03-02T03:24:12.642Z,97.00
2018-03-02T03:26:40.208Z,96.60
2018-03-02T03:29:07.749Z,96.70
2018-03-02T03:31:35.315Z,97.10
2018-03-02T03:34:02.854Z,97.10
2018-03-02T03:36:31.180Z,97.40
2018-03-02T03:38:58.713Z,97.30
2018-03-02T03:41:26.298Z,98.80
2018-03-02T03:43:53.845Z,98.90
2018-03-02T03:46:21.415Z,98.50
2018-03-02T03:48:48.955Z,97.70
2018-03-02T03:51:16.519Z,98.40
2018-03-02T03:53:44.078Z,99.60
2018-03-02T03:56:11.643Z,99.20
2018-03-02T03:58:39.222Z,99.70
2018-03-02T04:01:06.796Z,99.60
2018-03-02T04:03:34.359Z,99.50
2018-03-02T04:06:01.922Z,99.90
2018-03-02T04:08:29.457Z,99.90
2018-03-02T04:10:57.027Z,99.90
2018-03-02T04:13:24.566Z,99.90
2018-03-02T04:15:52.132Z,99.90
2018-03-02T04:18:19.673Z,99.90
2018-03-02T04:20:47.246Z,99.90
2018-03-02T04:23:14.788Z,99.90
2018-03-02T04:25:42.327Z,99.90
2018-03-02T04:28:10.663Z,99.90
2018-03-02T04:30:38.199Z,99.90
2018-03-02T04:33:05.762Z,99.90
2018-03-02T04:35:33.304Z,99.90
2018-03-02T04:38:00.862Z,99.90
2018-03-02T04:40:28.405Z,99.90
2018-03-02T04:42:56.737Z,99.90
2018-03-02T04:45:24.276Z,99.90
2018-03-02T04:47:51.856Z,99.90
2018-03-02T04:50:19.400Z,99.90
2018-03-02T04:52:46.962Z,99.90
2018-03-02T04:55:14.578Z,99.90
2018-03-02T04:57:42.913Z,99.90
2018-03-02T05:00:10.458Z,99.90
2018-03-02T05:02:38.019Z,99.90
2018-03-02T05:05:05.570Z,99.90
2018-03-02T05:07:33.136Z,99.90
2018-03-02T05:10:00.675Z,99.90
2018-03-02T05:12:28.233Z,99.90
2018-03-02T05:14:55.774Z,99.90
2018-03-02T05:17:24.110Z,99.90
2018-03-02T05:19:51.653Z,99.90
2018-03-02T05:22:19.222Z,99.90
2018-03-02T05:24:46.763Z,99.90
2018-03-02T05:27:14.328Z,99.90
2018-03-02T05:29:41.870Z,99.90
2018-03-02T05:32:09.665Z,99.90
2018-03-02T05:34:38.408Z,99.90
2018-03-02T05:37:06.061Z,99.90
2018-03-02T05:39:34.558Z,99.90
2018-03-02T05:42:02.255Z,99.90
2018-03-02T05:44:29.847Z,99.90
2018-03-02T05:46:57.411Z,99.90
2018-03-02T05:49:24.958Z,99.90
2018-03-02T05:51:52.522Z,99.90
2018-03-02T05:54:20.072Z,99.90
2018-03-02T05:56:47.630Z,99.90
2018-03-02T05:59:15.174Z,99.90
2018-03-02T06:01:42.746Z,99.90
2018-03-02T06:04:10.296Z,99.90
2018-03-02T06:06:37.855Z,99.90
2018-03-02T06:09:05.391Z,99.90
2018-03-02T06:11:32.963Z,99.90
2018-03-02T06:14:00.563Z,99.90
2018-03-02T06:16:28.122Z,99.90
2018-03-02T06:18:55.663Z,99.90
2018-03-02T06:21:23.235Z,99.90
2018-03-02T06:23:50.796Z,99.90
2018-03-02T06:26:18.358Z,99.90
2018-03-02T06:28:45.899Z,99.90
2018-03-02T06:31:13.442Z,99.90
2018-03-02T06:33:41.007Z,99.90
2018-03-02T06:56:59.912Z,99.90
2018-03-02T06:59:27.455Z,99.90
2018-03-02T07:01:55.018Z,99.90
2018-03-02T07:04:22.554Z,99.90
2018-03-02T07:06:50.878Z,99.90
2018-03-02T07:09:18.406Z,99.90
2018-03-02T07:11:45.968Z,99.90
2018-03-02T07:14:13.493Z,99.90
2018-03-02T07:16:41.054Z,99.90
2018-03-02T07:19:08.595Z,99.90
2018-03-02T07:21:36.151Z,99.90
2018-03-02T07:24:03.746Z,99.90
2018-03-02T07:26:32.050Z,99.90
2018-03-02T07:28:59.607Z,99.90
2018-03-02T07:31:27.147Z,99.90
2018-03-02T07:33:55.470Z,99.90
2018-03-02T07:36:23.002Z,99.90
2018-03-02T07:38:50.557Z,99.90
2018-03-02T07:41:18.091Z,99.90
2018-03-02T07:43:46.420Z,99.90
2018-03-02T07:46:13.966Z,99.90
2018-03-02T07:48:41.522Z,99.90
2018-03-02T07:51:09.062Z,99.90
2018-03-02T07:53:37.387Z,99.90
2018-03-02T07:56:04.934Z,99.90
2018-03-02T07:58:32.495Z,99.90
2018-03-02T08:01:00.031Z,99.90
2018-03-02T08:03:27.596Z,99.90
2018-03-02T08:05:55.143Z,99.90
2018-03-02T08:08:22.711Z,99.90
2018-03-02T08:10:50.246Z,99.90
2018-03-02T08:13:18.571Z,99.90
2018-03-02T08:15:46.106Z,99.90
2018-03-02T08:18:13.665Z,99.90
2018-03-02T08:20:41.232Z,99.90
2018-03-02T08:23:08.766Z,99.90
2018-03-02T08:25:37.113Z,99.90
2018-03-02T08:28:04.655Z,99.90
2018-03-02T08:30:32.222Z,99.90
2018-03-02T08:32:59.766Z,99.90
2018-03-02T08:35:27.334Z,99.90
2018-03-02T08:37:54.865Z,99.90
2018-03-02T08:40:22.429Z,99.90
2018-03-02T08:42:49.987Z,99.90
2018-03-02T08:45:17.550Z,99.90
2018-03-02T08:47:45.091Z,99.90
2018-03-02T08:50:13.422Z,99.90
2018-03-02T08:52:40.962Z,99.90
2018-03-02T08:55:08.530Z,99.90
2018-03-02T08:57:36.076Z,99.90
2018-03-02T09:00:03.635Z,99.90
2018-03-02T09:02:31.176Z,99.90
2018-03-02T09:04:58.743Z,99.90
2018-03-02T09:07:26.278Z,99.90
2018-03-02T09:09:54.618Z,99.90
2018-03-02T09:12:22.156Z,99.90
2018-03-02T09:14:49.716Z,99.90
2018-03-02T09:17:17.262Z,99.90
2018-03-02T09:19:44.822Z,99.90
2018-03-02T09:22:12.375Z,99.90
2018-03-02T09:24:39.951Z,99.90
2018-03-02T09:27:07.495Z,99.90
2018-03-02T09:29:35.039Z,99.90
2018-03-02T09:32:03.375Z,99.90
2018-03-02T09:34:31.683Z,99.90
2018-03-02T09:37:00.027Z,99.90
2018-03-02T09:39:27.573Z,99.90
2018-03-02T09:41:55.135Z,99.90
2018-03-02T09:44:22.671Z,99.90
2018-03-02T09:46:50.226Z,99.90
2018-03-02T09:49:17.762Z,99.90
2018-03-02T09:51:46.094Z,99.90
2018-03-02T09:54:13.636Z,99.90
2018-03-02T09:56:41.199Z,99.90
2018-03-02T09:59:08.742Z,99.90
2018-03-02T10:01:36.354Z,99.90
2018-03-02T10:04:03.953Z,99.90
2018-03-02T10:06:31.529Z,99.90
2018-03-02T10:08:59.075Z,99.90
2018-03-02T10:11:26.614Z,99.90
2018-03-02T10:13:54.178Z,99.90
2018-03-02T10:16:22.485Z,99.90
2018-03-02T10:18:50.050Z,99.90
2018-03-02T10:21:17.627Z,99.90
2018-03-02T10:23:45.190Z,99.90
2018-03-02T10:26:12.726Z,99.90
2018-03-02T10:28:40.282Z,99.90
2018-03-02T10:31:07.830Z,99.90
2018-03-02T10:33:35.399Z,99.90
2018-03-02T10:36:02.941Z,99.90
2018-03-02T10:38:31.274Z,99.90
2018-03-02T10:40:58.819Z,99.90
2018-03-02T10:43:26.379Z,99.90
2018-03-02T10:45:53.919Z,99.90
2018-03-02T10:48:21.482Z,99.90
2018-03-02T10:50:49.018Z,99.90
2018-03-02T10:53:17.353Z,99.90
2018-03-02T10:55:45.663Z,99.90
2018-03-02T10:58:13.998Z,99.90
2018-03-02T11:00:47.255Z,99.90
2018-03-02T11:03:20.519Z,99.90
2018-03-02T11:05:48.066Z,99.90
2018-03-02T11:08:15.627Z,99.90
2018-03-02T11:10:43.171Z,99.90
2018-03-02T11:13:10.744Z,99.90
2018-03-02T11:15:38.278Z,99.90
2018-03-02T11:18:05.843Z,99.90
2018-03-02T11:20:33.391Z,99.90
2018-03-02T11:23:00.968Z,99.90
2018-03-02T11:25:28.518Z,99.90
2018-03-02T11:27:56.059Z,99.90
2018-03-02T11:30:23.657Z,99.90
2018-03-02T11:32:51.179Z,99.90
2018-03-02T11:35:18.743Z,99.90
2018-03-02T11:37:46.282Z,99.90
2018-03-02T11:40:14.619Z,99.90
2018-03-02T11:42:42.158Z,99.90
2018-03-02T11:45:10.481Z,99.90
2018-03-02T11:47:38.791Z,99.90
2018-03-02T11:50:06.362Z,99.90
2018-03-02T11:52:33.921Z,99.90
2018-03-02T11:55:01.491Z,99.90
2018-03-02T11:57:29.030Z,99.90
2018-03-02T11:59:56.586Z,99.90
2018-03-02T12:02:24.126Z,99.90
2018-03-02T12:04:52.459Z,99.90
2018-03-02T12:07:19.997Z,99.90
2018-03-02T12:09:47.557Z,99.90
2018-03-02T12:12:15.095Z,99.90
2018-03-02T12:14:42.710Z,99.90
2018-03-02T12:17:10.252Z,99.90
2018-03-02T12:19:37.811Z,99.90
2018-03-02T12:22:05.350Z,99.90
2018-03-02T12:24:32.910Z,99.90
2018-03-02T12:27:00.451Z,99.90
2018-03-02T12:29:28.027Z,99.90
2018-03-02T12:31:55.604Z,99.90
2018-03-02T12:34:23.147Z,99.90
2018-03-02T12:36:50.688Z,99.90
2018-03-02T12:39:18.259Z,99.90
2018-03-02T12:41:45.802Z,99.90
2018-03-02T12:44:14.136Z,99.90
2018-03-02T12:46:41.678Z,99.90
2018-03-02T12:49:09.259Z,99.90
2018-03-02T12:51:36.818Z,99.90
2018-03-02T12:54:04.383Z,99.90
2018-03-02T12:56:31.922Z,99.90
2018-03-02T12:58:59.496Z,99.90
2018-03-02T13:01:27.031Z,99.90
2018-03-02T13:03:54.595Z,99.90
2018-03-02T13:06:22.138Z,99.90
2018-03-02T13:08:49.721Z,99.90
2018-03-02T13:11:17.267Z,99.90
2018-03-02T13:13:44.809Z,99.90
2018-03-02T13:16:12.375Z,99.90
2018-03-02T13:18:42.916Z,99.90
2018-03-02T13:21:10.486Z,99.90
2018-03-02T13:23:38.023Z,99.90
2018-03-02T13:26:05.587Z,99.90
2018-03-02T13:28:44.991Z,99.90
2018-03-02T13:31:13.322Z,99.90
2018-03-02T13:33:52.802Z,99.90
2018-03-02T13:36:20.364Z,99.90
2018-03-02T13:38:47.918Z,99.90
2018-03-02T13:41:27.372Z,99.90
2018-03-02T13:43:55.682Z,99.90
2018-03-02T13:46:23.249Z,99.90
2018-03-02T13:49:02.529Z,99.90
2018-03-02T13:51:30.872Z,99.90
2018-03-02T13:53:58.416Z,99.90
2018-03-02T13:56:37.903Z,99.90
2018-03-02T13:59:05.442Z,99.90
2018-03-02T14:01:33.008Z,99.90
2018-03-02T14:04:13.195Z,99.90
2018-03-02T14:06:41.522Z,99.90
2018-03-02T14:09:09.058Z,99.90
2018-03-02T14:11:36.639Z,99.90
2018-03-02T14:14:04.186Z,99.90
2018-03-02T14:16:31.755Z,99.90
2018-03-02T14:18:59.299Z,99.90
2018-03-02T14:21:26.863Z,99.90
2018-03-02T14:23:54.411Z,99.90
2018-03-02T14:26:21.978Z,99.90
2018-03-02T14:28:49.567Z,99.90
2018-03-02T14:31:17.123Z,99.90
2018-03-02T14:33:44.661Z,99.90
2018-03-02T14:36:12.235Z,99.90
2018-03-02T14:38:39.774Z,99.90
2018-03-02T14:41:07.334Z,99.90
2018-03-02T14:43:34.875Z,99.90
2018-03-02T14:46:03.210Z,99.90
2018-03-02T14:48:30.751Z,99.90
2018-03-02T14:50:58.330Z,99.90
2018-03-02T14:53:25.873Z,99.90
2018-03-02T14:55:53.436Z,99.90
2018-03-02T14:58:20.974Z,99.90
2018-03-02T15:00:48.534Z,99.90
2018-03-02T15:03:16.085Z,99.90
2018-03-02T15:05:43.656Z,99.90
2018-03-02T15:08:11.198Z,99.90
2018-03-02T15:10:39.541Z,99.90
2018-03-02T15:13:07.098Z,99.90
2018-03-02T15:15:34.673Z,99.90
2018-03-02T15:18:02.225Z,99.90
2018-03-02T15:20:29.784Z,99.90
2018-03-02T15:22:57.357Z,99.90
2018-03-02T15:25:25.663Z,99.90
2018-03-02T15:27:53.230Z,99.90
2018-03-02T15:30:20.769Z,99.90
2018-03-02T15:32:49.095Z,99.90
2018-03-02T15:35:16.634Z,99.90
2018-03-02T15:37:44.227Z,99.90
2018-03-02T15:40:11.773Z,99.90
2018-03-02T15:42:39.335Z,99.90
2018-03-02T15:45:06.875Z,99.90
2018-03-02T15:47:34.447Z,99.90
2018-03-02T15:50:01.986Z,99.90
2018-03-02T15:52:29.550Z,99.90
2018-03-02T15:54:57.090Z,99.90
2018-03-02T15:57:25.420Z,99.90
2018-03-02T15:59:52.967Z,99.90
2018-03-02T16:02:20.541Z,99.90
2018-03-02T16:04:48.075Z,99.90
2018-03-02T16:07:15.645Z,99.90
2018-03-02T16:09:43.182Z,99.90
2018-03-02T16:12:10.746Z,99.90
2018-03-02T16:14:38.290Z,99.90
2018-03-02T16:17:05.857Z,99.90
2018-03-02T16:19:33.394Z,99.90
2018-03-02T16:22:01.703Z,99.90
2018-03-02T16:24:29.278Z,99.90
2018-03-02T16:26:56.822Z,99.90
2018-03-02T16:29:24.388Z,99.90
2018-03-02T16:31:51.929Z,99.90
2018-03-02T16:34:19.503Z,99.90
2018-03-02T16:36:47.051Z,99.90
2018-03-02T16:39:14.635Z,99.90
2018-03-02T16:41:42.193Z,99.90
2018-03-02T16:44:09.762Z,99.90
2018-03-02T16:46:37.309Z,99.90
2018-03-02T16:49:04.879Z,99.90
2018-03-02T16:51:32.439Z,99.90
2018-03-02T16:54:00.016Z,99.90
2018-03-02T16:56:27.558Z,99.90
2018-03-02T16:58:55.670Z,99.90
2018-03-02T17:01:24.494Z,99.90
2018-03-02T17:03:52.100Z,99.90
2018-03-02T17:06:19.648Z,99.90
2018-03-02T17:08:47.223Z,99.90
2018-03-02T17:11:14.770Z,99.90
2018-03-02T17:13:42.335Z,99.90
2018-03-02T17:16:10.305Z,99.90
2018-03-02T17:18:37.899Z,99.90
2018-03-02T17:21:05.439Z,99.90
2018-03-02T17:23:33.019Z,99.90
2018-03-02T17:26:01.334Z,99.90
2018-03-02T17:28:28.997Z,99.90
2018-03-02T17:30:56.538Z,99.90
2018-03-02T17:33:24.079Z,99.90
2018-03-02T17:35:52.423Z,99.90
2018-03-02T17:38:19.967Z,99.90
2018-03-02T17:40:47.574Z,99.90
2018-03-02T17:43:15.122Z,99.90
2018-03-02T17:45:42.692Z,99.90
2018-03-02T17:48:10.237Z,99.90
2018-03-02T17:50:37.806Z,99.90
2018-03-02T17:53:05.347Z,99.90
2018-03-02T17:55:32.920Z,99.90
2018-03-02T17:58:00.469Z,99.90
2018-03-02T18:00:28.040Z,99.90
2018-03-02T18:02:55.583Z,99.90
2018-03-02T18:05:23.154Z,99.90
2018-03-02T18:07:50.702Z,99.90
2018-03-02T18:10:18.273Z,99.90
2018-03-02T18:12:45.823Z,99.90
2018-03-02T18:15:19.556Z,99.90
2018-03-02T18:17:47.111Z,99.90
2018-03-02T18:20:14.683Z,99.90
2018-03-02T18:22:42.991Z,99.90
2018-03-02T18:25:10.559Z,99.90
2018-03-02T18:27:38.109Z,99.90
2018-03-02T18:30:05.698Z,99.90
2018-03-02T18:32:33.238Z,99.90
2018-03-02T18:35:00.787Z,99.90
2018-03-02T18:37:28.354Z,99.90
2018-03-02T18:39:55.890Z,99.90
2018-03-02T18:42:24.232Z,99.90
2018-03-02T18:44:51.779Z,99.90
2018-03-02T18:47:19.342Z,99.90
2018-03-02T18:49:46.891Z,99.90
2018-03-02T18:52:14.458Z,99.90
2018-03-02T18:54:42.004Z,99.90
2018-03-02T18:57:09.579Z,99.90
2018-03-02T18:59:37.123Z,99.90
2018-03-02T19:02:04.691Z,99.90
2018-03-02T19:04:32.231Z,99.90
2018-03-02T19:06:59.799Z,99.90
2018-03-02T19:09:27.351Z,99.90
2018-03-02T19:11:54.913Z,99.90
2018-03-02T19:14:22.458Z,99.90
2018-03-02T19:16:50.038Z,99.90
2018-03-02T19:19:17.643Z,99.90
2018-03-02T19:21:45.220Z,99.90
2018-03-02T19:24:13.536Z,99.90
2018-03-02T19:26:41.104Z,99.90
2018-03-02T19:29:08.642Z,99.90
2018-03-02T19:31:36.217Z,99.90
2018-03-02T19:34:03.770Z,99.90
2018-03-02T19:36:31.342Z,99.90
2018-03-02T19:38:58.887Z,99.90
2018-03-02T19:41:26.429Z,99.90
2018-03-02T19:43:54.047Z,99.90
2018-03-02T19:46:21.577Z,99.90
2018-03-02T19:48:49.196Z,99.90
2018-03-02T19:51:25.669Z,99.90
2018-03-02T19:54:01.782Z,99.90
2018-03-02T19:56:38.259Z,99.90
2018-03-02T19:59:13.747Z,99.90
2018-03-02T20:01:42.054Z,99.90
2018-03-02T20:04:10.024Z,99.90
2018-03-02T20:06:39.107Z,99.90
2018-03-02T20:09:06.670Z,99.90
2018-03-02T20:11:34.209Z,99.90
2018-03-02T20:14:02.550Z,99.90
2018-03-02T20:16:30.090Z,99.90
2018-03-02T20:18:57.655Z,99.90
2018-03-02T20:21:25.204Z,99.90
2018-03-02T20:23:52.769Z,99.90
2018-03-02T20:26:20.308Z,99.90
2018-03-02T20:28:47.879Z,99.90
2018-03-02T20:31:15.432Z,99.90
2018-03-02T20:33:42.999Z,99.90
2018-03-02T20:36:10.540Z,99.90
2018-03-02T20:38:38.111Z,99.90
2018-03-02T20:41:05.723Z,99.90
2018-03-02T20:43:33.299Z,99.90
2018-03-02T20:46:01.629Z,99.90
2018-03-02T20:48:29.199Z,99.90
2018-03-02T20:50:57.014Z,99.90
2018-03-02T20:53:25.418Z,99.90
2018-03-02T20:55:52.966Z,99.90
2018-03-02T20:58:20.800Z,99.90
2018-03-02T21:00:48.758Z,99.90
2018-03-02T21:03:17.158Z,99.90
2018-03-02T21:05:44.788Z,99.90
2018-03-02T21:08:12.348Z,99.90
2018-03-02T21:10:40.071Z,99.90
2018-03-02T21:13:07.771Z,99.90
2018-03-02T21:15:35.467Z,99.90
2018-03-02T21:18:03.041Z,99.90
2018-03-02T21:20:31.378Z,99.90
2018-03-02T21:22:58.964Z,99.90
2018-03-02T21:25:26.526Z,99.90
2018-03-02T21:27:54.927Z,99.90
2018-03-02T21:30:22.509Z,99.90
2018-03-02T21:32:50.071Z,99.90
2018-03-02T21:35:17.639Z,99.90
2018-03-02T21:37:45.193Z,99.90
2018-03-02T21:40:12.762Z,99.90
2018-03-02T21:42:41.071Z,99.90
2018-03-02T21:45:08.656Z,99.90
2018-03-02T21:47:36.964Z,99.90
2018-03-02T21:50:04.539Z,99.90
2018-03-02T21:52:32.339Z,99.90
2018-03-02T21:55:00.118Z,99.90
2018-03-02T21:57:27.729Z,99.90
2018-03-02T21:59:55.507Z,99.90
2018-03-02T22:02:24.048Z,99.90
2018-03-02T22:04:51.669Z,99.90
2018-03-02T22:07:22.537Z,99.90
2018-03-02T22:09:50.194Z,99.90
2018-03-02T22:12:18.530Z,99.90
2018-03-02T22:14:46.171Z,99.90
2018-03-02T22:17:13.999Z,99.90
2018-03-02T22:19:41.575Z,99.90
2018-03-02T22:22:09.134Z,99.90
2018-03-02T22:24:36.671Z,99.90
2018-03-02T22:27:05.015Z,99.90
2018-03-02T22:29:32.580Z,99.90
2018-03-02T22:32:00.151Z,99.90
2018-03-02T22:34:27.793Z,99.90
2018-03-02T22:36:55.367Z,99.90
2018-03-02T22:39:23.110Z,99.90
2018-03-02T22:41:50.687Z,99.90
2018-03-02T22:44:18.227Z,99.90
2018-03-02T22:46:45.799Z,99.90
2018-03-02T22:49:13.654Z,99.90
2018-03-02T22:51:41.377Z,99.90
2018-03-02T22:54:08.924Z,99.90
2018-03-02T22:56:37.606Z,99.90
2018-03-02T22:59:05.910Z,99.90
2018-03-02T23:01:33.638Z,99.90
2018-03-02T23:04:01.275Z,99.90
2018-03-02T23:06:28.832Z,99.90
2018-03-02T23:08:56.480Z,99.90
2018-03-02T23:11:24.057Z,99.90
2018-03-02T23:13:51.634Z,99.90
2018-03-02T23:16:19.180Z,99.90
2018-03-02T23:18:46.742Z,99.90
2018-03-02T23:21:14.298Z,99.90
2018-03-02T23:23:41.902Z,99.90
2018-03-02T23:26:09.518Z,99.90
2018-03-02T23:28:37.083Z,99.90
2018-03-02T23:31:04.630Z,99.90
2018-03-02T23:33:32.198Z,99.90
2018-03-02T23:35:59.737Z,99.90
2018-03-02T23:38:27.301Z,99.90
2018-03-02T23:40:54.851Z,99.90
2018-03-02T23:43:22.416Z,99.90
2018-03-02T23:45:49.962Z,99.90
2018-03-02T23:48:17.541Z,99.90
2018-03-02T23:50:45.103Z,99.90
2018-03-02T23:53:12.683Z,99.90
2018-03-02T23:55:40.231Z,99.90
2018-03-02T23:58:07.805Z,99.90
